createdAt,value
2019-03-04T00:00:41.013Z,84.60
2019-03-04T00:01:41.016Z,84.50
2019-03-04T00:02:41.000Z,84.60
2019-03-04T00:03:40.997Z,84.39
2019-03-04T00:04:40.979Z,84.60
2019-03-04T00:05:40.981Z,84.29
2019-03-04T00:06:40.946Z,84.39
2019-03-04T00:07:40.987Z,84.39
2019-03-04T00:08:40.937Z,84.39
2019-03-04T00:09:40.919Z,84.39
2019-03-04T00:10:40.950Z,84.29
2019-03-04T00:11:40.889Z,83.88
2019-03-04T00:12:40.880Z,84.09
2019-03-04T00:13:40.872Z,83.68
2019-03-04T00:14:40.871Z,83.68
2019-03-04T00:15:40.879Z,83.68
2019-03-04T00:16:40.874Z,83.58
2019-03-04T00:17:40.826Z,83.54
2019-03-04T00:18:40.816Z,83.68
2019-03-04T00:19:40.813Z,83.78
2019-03-04T00:20:40.812Z,83.68
2019-03-04T00:21:40.819Z,83.58
2019-03-04T00:22:40.790Z,83.78
2019-03-04T00:23:40.757Z,83.27
2019-03-04T00:24:40.754Z,83.37
2019-03-04T00:25:40.740Z,83.58
2019-03-04T00:26:40.758Z,83.98
2019-03-04T00:27:40.731Z,83.98
2019-03-04T00:28:40.725Z,83.68
2019-03-04T00:29:40.705Z,83.68
2019-03-04T00:30:40.696Z,83.58
2019-03-04T00:31:40.676Z,83.88
2019-03-04T00:32:40.686Z,84.03
2019-03-04T00:33:40.666Z,84.12
2019-03-04T00:34:40.660Z,84.23
2019-03-04T00:35:40.632Z,83.72
2019-03-04T00:36:40.618Z,83.78
2019-03-04T00:37:40.636Z,84.23
2019-03-04T00:38:40.598Z,84.12
2019-03-04T00:39:40.598Z,83.82
2019-03-04T00:40:40.580Z,83.82
2019-03-04T00:41:40.574Z,83.92
2019-03-04T00:42:40.607Z,83.82
2019-03-04T00:43:40.552Z,83.72
2019-03-04T00:44:40.545Z,83.51
2019-03-04T00:45:40.526Z,83.92
2019-03-04T00:46:40.518Z,83.61
2019-03-04T00:47:40.540Z,83.51
2019-03-04T00:48:40.497Z,83.41
2019-03-04T00:49:40.491Z,83.72
2019-03-04T00:50:40.464Z,83.72
2019-03-04T00:51:40.467Z,83.41
2019-03-04T00:52:40.477Z,83.82
2019-03-04T00:53:40.457Z,83.72
2019-03-04T00:54:40.436Z,83.65
2019-03-04T00:55:40.413Z,83.41
2019-03-04T00:56:40.401Z,83.72
2019-03-04T00:57:40.398Z,83.51
2019-03-04T00:58:40.415Z,83.96
2019-03-04T00:59:40.398Z,83.72
2019-03-04T01:00:40.365Z,83.76
2019-03-04T01:01:40.366Z,83.25
2019-03-04T01:02:40.341Z,83.82
2019-03-04T01:03:40.323Z,83.10
2019-03-04T01:04:40.391Z,83.61
2019-03-04T01:05:40.328Z,83.20
2019-03-04T01:06:40.300Z,83.00
2019-03-04T01:07:40.301Z,83.04
2019-03-04T01:08:40.270Z,82.69
2019-03-04T01:09:40.288Z,82.49
2019-03-04T01:10:40.240Z,82.69
2019-03-04T01:11:40.245Z,82.49
2019-03-04T01:12:40.247Z,82.90
2019-03-04T01:13:40.231Z,82.18
2019-03-04T01:14:40.236Z,82.28
2019-03-04T01:15:40.200Z,82.18
2019-03-04T01:16:40.185Z,82.18
2019-03-04T01:17:40.165Z,82.65
2019-03-04T01:18:40.160Z,82.08
2019-03-04T01:19:40.182Z,82.28
2019-03-04T01:20:40.151Z,81.77
2019-03-04T01:21:40.125Z,81.87
2019-03-04T01:22:40.119Z,82.86
2019-03-04T01:23:40.113Z,81.77
2019-03-04T01:24:40.115Z,81.84
2019-03-04T01:25:40.125Z,81.32
2019-03-04T01:26:40.085Z,81.01
2019-03-04T01:27:40.058Z,81.01
2019-03-04T01:28:40.052Z,81.12
2019-03-04T01:29:40.040Z,81.12
2019-03-04T01:30:40.045Z,81.52
2019-03-04T01:31:40.025Z,81.52
2019-03-04T01:32:40.027Z,81.43
2019-03-04T01:33:40.011Z,81.32
2019-03-04T01:34:39.989Z,81.01
2019-03-04T01:35:40.022Z,81.01
2019-03-04T01:36:39.963Z,81.32
2019-03-04T01:37:39.969Z,81.01
2019-03-04T01:38:39.965Z,81.12
2019-03-04T01:39:39.934Z,81.63
2019-03-04T01:40:39.917Z,81.01
2019-03-04T01:41:39.924Z,81.36
2019-03-04T01:42:39.903Z,81.22
2019-03-04T01:43:39.900Z,81.05
2019-03-04T01:44:39.900Z,80.85
2019-03-04T01:45:39.889Z,81.26
2019-03-04T01:46:39.863Z,81.05
2019-03-04T01:47:39.869Z,80.85
2019-03-04T01:48:39.940Z,81.05
2019-03-04T01:49:39.839Z,81.87
2019-03-04T01:50:39.810Z,81.67
2019-03-04T01:51:39.809Z,81.67
2019-03-04T01:52:39.803Z,81.81
2019-03-04T01:53:39.797Z,82.32
2019-03-04T01:54:39.766Z,82.63
2019-03-04T01:55:39.777Z,82.12
2019-03-04T01:56:39.759Z,82.32
2019-03-04T01:57:39.774Z,82.12
2019-03-04T01:58:39.728Z,82.12
2019-03-04T01:59:39.708Z,82.22
2019-03-04T02:00:39.698Z,82.22
2019-03-04T02:01:39.689Z,82.22
2019-03-04T02:02:39.677Z,82.26
2019-03-04T02:03:39.702Z,82.22
2019-03-04T02:04:39.668Z,82.56
2019-03-04T02:05:39.681Z,83.07
2019-03-04T02:06:39.646Z,83.39
2019-03-04T02:07:39.630Z,83.14
2019-03-04T02:08:39.606Z,83.07
2019-03-04T02:09:39.634Z,83.28
2019-03-04T02:10:39.605Z,82.87
2019-03-04T02:11:39.592Z,83.18
2019-03-04T02:12:39.567Z,83.28
2019-03-04T02:13:39.554Z,83.22
2019-03-04T02:14:39.545Z,83.07
2019-03-04T02:15:39.562Z,83.07
2019-03-04T02:16:39.537Z,82.97
2019-03-04T02:17:39.544Z,83.28
2019-03-04T02:18:39.519Z,82.97
2019-03-04T02:19:39.497Z,83.18
2019-03-04T02:20:39.507Z,83.18
2019-03-04T02:21:39.476Z,83.07
2019-03-04T02:22:39.453Z,83.39
2019-03-04T02:23:39.495Z,83.28
2019-03-04T02:24:39.453Z,83.18
2019-03-04T02:25:39.431Z,82.97
2019-03-04T02:26:39.412Z,83.07
2019-03-04T02:27:39.417Z,83.32
2019-03-04T02:28:39.431Z,83.80
2019-03-04T02:29:39.393Z,83.90
2019-03-04T02:30:39.385Z,83.69
2019-03-04T02:31:39.354Z,83.83
2019-03-04T02:32:39.349Z,83.83
2019-03-04T02:33:39.343Z,83.94
2019-03-04T02:34:39.358Z,83.69
2019-03-04T02:35:39.335Z,83.83
2019-03-04T02:36:39.339Z,83.73
2019-03-04T02:37:39.310Z,83.94
2019-03-04T02:38:39.288Z,83.69
2019-03-04T02:39:39.277Z,83.83
2019-03-04T02:40:39.260Z,83.73
2019-03-04T02:41:39.302Z,83.53
2019-03-04T02:42:39.251Z,83.83
2019-03-04T02:43:39.230Z,83.83
2019-03-04T02:44:39.260Z,83.63
2019-03-04T02:45:39.213Z,83.83
2019-03-04T02:46:39.201Z,83.53
2019-03-04T02:47:39.215Z,83.53
2019-03-04T02:48:39.181Z,83.22
2019-03-04T02:49:39.171Z,83.01
2019-03-04T02:50:39.196Z,83.18
2019-03-04T02:51:39.152Z,83.12
2019-03-04T02:52:39.129Z,83.53
2019-03-04T02:53:39.113Z,83.18
2019-03-04T02:54:39.107Z,83.32
2019-03-04T02:55:39.134Z,83.07
2019-03-04T02:56:39.113Z,83.01
2019-03-04T02:57:39.071Z,83.53
2019-03-04T02:58:39.059Z,83.22
2019-03-04T02:59:39.072Z,83.18
2019-03-04T03:00:39.056Z,83.12
2019-03-04T03:01:39.078Z,82.91
2019-03-04T03:02:39.049Z,83.12
2019-03-04T03:03:39.011Z,83.69
2019-03-04T03:04:39.003Z,82.77
2019-03-04T03:05:38.985Z,83.12
2019-03-04T03:06:38.995Z,83.32
2019-03-04T03:07:38.970Z,83.12
2019-03-04T03:08:38.967Z,83.01
2019-03-04T03:09:38.957Z,83.01
2019-03-04T03:10:38.942Z,83.01
2019-03-04T03:11:38.954Z,83.22
2019-03-04T03:12:38.912Z,83.32
2019-03-04T03:13:38.904Z,83.32
2019-03-04T03:14:38.893Z,83.22
2019-03-04T03:15:38.891Z,83.22
2019-03-04T03:16:38.894Z,83.28
2019-03-04T03:17:38.849Z,83.18
2019-03-04T03:18:38.851Z,83.28
2019-03-04T03:19:38.848Z,82.87
2019-03-04T03:20:38.828Z,82.91
2019-03-04T03:21:38.846Z,82.81
2019-03-04T03:22:38.809Z,83.22
2019-03-04T03:23:38.788Z,83.18
2019-03-04T03:24:38.788Z,83.01
2019-03-04T03:25:38.773Z,83.07
2019-03-04T03:26:38.782Z,82.87
2019-03-04T03:27:38.770Z,82.97
2019-03-04T03:28:38.803Z,82.87
2019-03-04T03:29:38.724Z,83.69
2019-03-04T03:30:38.738Z,82.87
2019-03-04T03:31:38.712Z,83.07
2019-03-04T03:32:38.726Z,83.18
2019-03-04T03:33:38.702Z,83.18
2019-03-04T03:34:38.685Z,83.18
2019-03-04T03:35:38.663Z,83.18
2019-03-04T03:36:38.643Z,83.18
2019-03-04T03:37:38.649Z,82.50
2019-03-04T03:38:38.650Z,82.56
2019-03-04T03:39:38.630Z,82.36
2019-03-04T03:40:38.617Z,82.60
2019-03-04T03:41:38.622Z,83.07
2019-03-04T03:42:38.591Z,83.07
2019-03-04T03:43:38.570Z,82.97
2019-03-04T03:44:38.566Z,83.28
2019-03-04T03:45:38.555Z,83.28
2019-03-04T03:46:38.543Z,82.77
2019-03-04T03:47:38.606Z,83.28
2019-03-04T03:48:38.524Z,83.28
2019-03-04T03:49:38.530Z,83.69
2019-03-04T03:50:38.512Z,82.87
2019-03-04T03:51:38.491Z,82.77
2019-03-04T03:52:38.512Z,82.77
2019-03-04T03:53:38.504Z,82.36
2019-03-04T03:54:38.460Z,82.46
2019-03-04T03:55:38.441Z,82.36
2019-03-04T03:56:38.451Z,82.36
2019-03-04T03:57:38.411Z,82.36
2019-03-04T03:58:38.402Z,82.56
2019-03-04T03:59:38.420Z,82.46
2019-03-04T04:00:38.396Z,83.07
2019-03-04T04:01:38.377Z,82.87
2019-03-04T04:02:38.364Z,83.28
2019-03-04T04:03:38.358Z,83.28
2019-03-04T04:04:38.365Z,83.07
2019-03-04T04:05:38.353Z,82.36
2019-03-04T04:06:38.331Z,82.46
2019-03-04T04:07:38.314Z,82.56
2019-03-04T04:08:38.297Z,82.36
2019-03-04T04:09:38.294Z,82.12
2019-03-04T04:10:38.289Z,82.77
2019-03-04T04:11:38.267Z,82.46
2019-03-04T04:12:38.265Z,82.15
2019-03-04T04:13:38.253Z,82.15
2019-03-04T04:14:38.264Z,82.36
2019-03-04T04:15:38.216Z,82.05
2019-03-04T04:16:38.218Z,82.67
2019-03-04T04:17:38.207Z,82.46
2019-03-04T04:18:38.198Z,82.26
2019-03-04T04:19:38.198Z,82.26
2019-03-04T04:20:38.158Z,82.46
2019-03-04T04:21:38.157Z,82.46
2019-03-04T04:22:38.145Z,82.26
2019-03-04T04:23:38.155Z,83.07
2019-03-04T04:24:38.150Z,82.15
2019-03-04T04:25:38.124Z,82.46
2019-03-04T04:26:38.108Z,82.26
2019-03-04T04:27:38.088Z,82.46
2019-03-04T04:28:38.075Z,82.77
2019-03-04T04:29:38.117Z,83.07
2019-03-04T04:30:38.085Z,82.97
2019-03-04T04:31:38.051Z,83.07
2019-03-04T04:32:38.036Z,83.07
2019-03-04T04:33:38.051Z,83.07
2019-03-04T04:34:38.063Z,83.22
2019-03-04T04:35:38.009Z,83.32
2019-03-04T04:36:37.999Z,83.53
2019-03-04T04:37:37.981Z,83.83
2019-03-04T04:38:37.975Z,83.53
2019-03-04T04:39:37.972Z,83.94
2019-03-04T04:40:37.953Z,83.32
2019-03-04T04:41:37.929Z,83.94
2019-03-04T04:42:37.969Z,83.73
2019-03-04T04:43:37.918Z,84.08
2019-03-04T04:44:37.913Z,83.94
2019-03-04T04:45:37.896Z,84.04
2019-03-04T04:46:37.900Z,84.55
2019-03-04T04:47:37.873Z,84.25
2019-03-04T04:48:37.896Z,84.28
2019-03-04T04:49:37.855Z,83.53
2019-03-04T04:50:37.849Z,84.14
2019-03-04T04:51:37.823Z,83.94
2019-03-04T04:52:37.828Z,84.04
2019-03-04T04:53:37.802Z,83.83
2019-03-04T04:54:37.814Z,83.53
2019-03-04T04:55:37.783Z,83.53
2019-03-04T04:56:37.795Z,83.73
2019-03-04T04:57:37.766Z,83.83
2019-03-04T04:58:37.764Z,84.34
2019-03-04T04:59:37.775Z,83.83
2019-03-04T05:00:37.731Z,83.83
2019-03-04T05:01:37.745Z,84.34
2019-03-04T05:02:37.703Z,83.83
2019-03-04T05:03:37.728Z,83.94
2019-03-04T05:04:37.695Z,83.42
2019-03-04T05:05:37.680Z,83.73
2019-03-04T05:06:37.673Z,83.73
2019-03-04T05:07:37.653Z,83.73
2019-03-04T05:08:37.676Z,83.83
2019-03-04T05:09:37.635Z,83.42
2019-03-04T05:10:37.627Z,83.73
2019-03-04T05:11:37.608Z,84.14
2019-03-04T05:12:37.598Z,83.69
2019-03-04T05:13:37.581Z,83.69
2019-03-04T05:14:37.599Z,84.10
2019-03-04T05:15:37.584Z,83.59
2019-03-04T05:16:37.557Z,84.00
2019-03-04T05:17:39.672Z,84.52
2019-03-04T05:18:37.543Z,85.47
2019-03-04T05:19:37.552Z,85.47
2019-03-04T05:20:37.509Z,86.30
2019-03-04T05:21:37.509Z,86.40
2019-03-04T05:22:37.495Z,86.30
2019-03-04T05:23:37.483Z,86.30
2019-03-04T05:24:37.456Z,86.30
2019-03-04T05:25:37.472Z,87.22
2019-03-04T05:26:37.444Z,88.39
2019-03-04T05:27:37.440Z,88.29
2019-03-04T05:28:37.426Z,88.49
2019-03-04T05:29:37.417Z,88.35
2019-03-04T05:30:37.433Z,88.49
2019-03-04T05:31:37.387Z,88.59
2019-03-04T05:32:37.383Z,88.90
2019-03-04T05:33:37.369Z,88.70
2019-03-04T05:34:37.362Z,88.49
2019-03-04T05:35:37.374Z,88.18
2019-03-04T05:36:37.337Z,88.39
2019-03-04T05:37:37.316Z,88.49
2019-03-04T05:38:37.319Z,88.90
2019-03-04T05:39:37.321Z,88.90
2019-03-04T05:40:37.330Z,89.11
2019-03-04T05:41:37.286Z,89.01
2019-03-04T05:42:37.278Z,88.80
2019-03-04T05:43:37.261Z,88.76
2019-03-04T05:44:37.256Z,89.31
2019-03-04T05:45:37.254Z,89.17
2019-03-04T05:46:37.246Z,89.17
2019-03-04T05:47:37.218Z,89.52
2019-03-04T05:48:37.212Z,89.89
2019-03-04T05:49:37.202Z,89.78
2019-03-04T05:50:37.198Z,89.72
2019-03-04T05:51:37.201Z,89.48
2019-03-04T05:52:37.154Z,89.58
2019-03-04T05:53:37.156Z,89.99
2019-03-04T05:54:37.145Z,89.78
2019-03-04T05:55:37.125Z,89.58
2019-03-04T05:56:37.125Z,89.11
2019-03-04T05:57:37.140Z,89.69
2019-03-04T05:58:37.106Z,89.69
2019-03-04T05:59:37.091Z,89.37
2019-03-04T06:00:37.080Z,89.37
2019-03-04T06:01:37.068Z,89.69
2019-03-04T06:02:37.053Z,89.37
2019-03-04T06:03:37.053Z,89.37
2019-03-04T06:04:37.028Z,88.86
2019-03-04T06:05:37.014Z,88.66
2019-03-04T06:06:37.004Z,88.66
2019-03-04T06:07:37.011Z,88.31
2019-03-04T06:08:37.014Z,88.35
2019-03-04T06:09:36.975Z,87.90
2019-03-04T06:10:36.963Z,87.70
2019-03-04T06:11:36.998Z,87.18
2019-03-04T06:12:36.943Z,87.59
2019-03-04T06:13:36.956Z,87.79
2019-03-04T06:14:36.933Z,87.49
2019-03-04T06:15:36.906Z,86.87
2019-03-04T06:16:46.802Z,87.08
2019-03-04T06:17:37.896Z,86.87
2019-03-04T06:18:36.901Z,87.08
2019-03-04T06:19:36.874Z,86.36
2019-03-04T06:20:36.875Z,86.36
2019-03-04T06:21:36.851Z,86.46
2019-03-04T06:22:36.859Z,86.57
2019-03-04T06:23:36.850Z,86.57
2019-03-04T06:24:36.814Z,86.66
2019-03-04T06:25:36.805Z,86.36
2019-03-04T06:26:36.795Z,86.46
2019-03-04T06:27:36.774Z,86.36
2019-03-04T06:28:36.763Z,86.36
2019-03-04T06:29:36.781Z,86.57
2019-03-04T06:30:36.745Z,86.46
2019-03-04T06:31:36.737Z,86.05
2019-03-04T06:32:36.732Z,86.25
2019-03-04T06:33:36.768Z,86.25
2019-03-04T06:34:36.747Z,86.15
2019-03-04T06:35:36.687Z,86.25
2019-03-04T06:36:36.679Z,85.85
2019-03-04T06:37:36.664Z,85.91
2019-03-04T06:38:36.670Z,85.91
2019-03-04T06:39:36.652Z,85.95
2019-03-04T06:40:36.668Z,85.80
2019-03-04T06:41:36.634Z,86.05
2019-03-04T06:42:36.608Z,85.80
2019-03-04T06:43:36.604Z,85.50
2019-03-04T06:44:36.598Z,85.60
2019-03-04T06:45:36.592Z,85.39
2019-03-04T06:46:36.592Z,85.39
2019-03-04T06:47:36.560Z,86.01
2019-03-04T06:48:36.539Z,85.50
2019-03-04T06:49:36.542Z,85.50
2019-03-04T06:50:36.522Z,85.71
2019-03-04T06:51:36.556Z,85.71
2019-03-04T06:52:36.504Z,85.39
2019-03-04T06:53:36.501Z,85.60
2019-03-04T06:54:36.488Z,85.39
2019-03-04T06:55:36.472Z,85.30
2019-03-04T06:56:36.482Z,85.39
2019-03-04T06:57:36.493Z,85.39
2019-03-04T06:58:36.444Z,85.30
2019-03-04T06:59:36.430Z,85.25
2019-03-04T07:00:36.420Z,85.15
2019-03-04T07:01:36.411Z,84.44
2019-03-04T07:02:36.684Z,84.23
2019-03-04T07:03:36.392Z,84.53
2019-03-04T07:04:36.382Z,84.23
2019-03-04T07:05:36.378Z,84.44
2019-03-04T07:06:36.354Z,84.44
2019-03-04T07:07:36.376Z,84.33
2019-03-04T07:08:36.330Z,84.64
2019-03-04T07:09:36.329Z,84.64
2019-03-04T07:10:36.315Z,83.92
2019-03-04T07:11:36.312Z,84.03
2019-03-04T07:12:36.304Z,83.92
2019-03-04T07:13:36.306Z,83.51
2019-03-04T07:14:36.269Z,83.61
2019-03-04T07:15:36.255Z,83.72
2019-03-04T07:16:36.252Z,83.06
2019-03-04T07:17:36.245Z,83.06
2019-03-04T07:18:36.254Z,82.14
2019-03-04T07:19:36.216Z,82.62
2019-03-04T07:20:36.208Z,81.73
2019-03-04T07:21:36.214Z,81.90
2019-03-04T07:22:36.178Z,81.79
2019-03-04T07:23:36.200Z,81.79
2019-03-04T07:24:36.166Z,81.08
2019-03-04T07:25:36.145Z,81.08
2019-03-04T07:26:36.138Z,80.77
2019-03-04T07:27:36.125Z,80.77
2019-03-04T07:28:36.125Z,81.59
2019-03-04T07:29:36.129Z,80.57
2019-03-04T07:30:36.105Z,80.26
2019-03-04T07:31:36.079Z,80.26
2019-03-04T07:32:36.066Z,80.16
2019-03-04T07:33:36.084Z,80.26
2019-03-04T07:34:36.047Z,79.91
2019-03-04T07:35:36.042Z,79.30
2019-03-04T07:36:36.062Z,79.61
2019-03-04T07:37:36.021Z,79.00
2019-03-04T07:38:36.025Z,78.69
2019-03-04T07:39:35.984Z,78.17
2019-03-04T07:40:35.983Z,78.69
2019-03-04T07:41:35.969Z,78.28
2019-03-04T07:42:35.973Z,78.28
2019-03-04T07:43:35.954Z,78.17
2019-03-04T07:44:35.963Z,78.38
2019-03-04T07:45:35.923Z,77.97
2019-03-04T07:46:35.905Z,78.04
2019-03-04T07:47:35.945Z,78.28
2019-03-04T07:48:35.895Z,77.97
2019-03-04T07:49:35.878Z,76.84
2019-03-04T07:50:35.872Z,77.63
2019-03-04T07:51:35.876Z,76.91
2019-03-04T07:52:35.869Z,76.81
2019-03-04T07:53:45.845Z,76.81
2019-03-04T07:54:36.823Z,76.61
2019-03-04T07:55:35.808Z,76.40
2019-03-04T07:56:35.813Z,76.30
2019-03-04T07:57:35.782Z,75.89
2019-03-04T07:58:35.775Z,76.09
2019-03-04T07:59:35.778Z,76.09
2019-03-04T08:00:35.760Z,75.89
2019-03-04T08:01:35.754Z,76.20
2019-03-04T08:02:35.731Z,75.99
2019-03-04T08:03:35.741Z,76.50
2019-03-04T08:04:35.714Z,76.30
2019-03-04T08:05:35.701Z,76.20
2019-03-04T08:06:35.728Z,76.20
2019-03-04T08:07:35.671Z,75.99
2019-03-04T08:08:35.680Z,76.09
2019-03-04T08:09:35.652Z,76.91
2019-03-04T08:10:35.643Z,76.26
2019-03-04T08:11:35.653Z,76.20
2019-03-04T08:12:35.669Z,76.61
2019-03-04T08:13:35.622Z,76.81
2019-03-04T08:14:35.607Z,77.01
2019-03-04T08:15:35.673Z,76.57
2019-03-04T08:16:36.288Z,76.57
2019-03-04T08:17:35.568Z,76.67
2019-03-04T08:18:35.574Z,76.67
2019-03-04T08:19:35.537Z,75.85
2019-03-04T08:20:35.523Z,76.67
2019-03-04T08:21:35.514Z,75.34
2019-03-04T08:22:35.505Z,75.45
2019-03-04T08:23:35.518Z,75.00
2019-03-04T08:24:35.491Z,74.80
2019-03-04T08:25:35.476Z,74.59
2019-03-04T08:26:35.480Z,74.08
2019-03-04T08:27:35.438Z,74.18
2019-03-04T08:28:35.433Z,74.69
2019-03-04T08:29:35.435Z,74.29
2019-03-04T08:30:35.425Z,74.49
2019-03-04T08:31:35.422Z,74.29
2019-03-04T08:32:35.436Z,74.59
2019-03-04T08:33:35.382Z,73.88
2019-03-04T08:34:35.370Z,74.25
2019-03-04T08:35:35.377Z,72.72
2019-03-04T08:36:35.356Z,72.48
2019-03-04T08:37:35.361Z,71.73
2019-03-04T08:38:35.367Z,70.68
2019-03-04T08:39:35.316Z,69.93
2019-03-04T08:40:35.312Z,68.98
2019-03-04T08:41:35.299Z,68.85
2019-03-04T08:42:35.291Z,68.78
2019-03-04T08:43:35.308Z,68.98
2019-03-04T08:44:35.270Z,68.65
2019-03-04T08:45:35.269Z,68.68
2019-03-04T08:46:35.250Z,69.70
2019-03-04T08:47:35.229Z,68.68
2019-03-04T08:48:35.219Z,68.48
2019-03-04T08:49:35.252Z,69.29
2019-03-04T08:50:35.206Z,68.88
2019-03-04T08:51:35.182Z,69.12
2019-03-04T08:52:35.171Z,69.12
2019-03-04T08:53:35.161Z,69.53
2019-03-04T08:54:35.161Z,70.07
2019-03-04T08:55:35.182Z,70.04
2019-03-04T08:56:35.137Z,70.17
2019-03-04T08:57:35.141Z,69.73
2019-03-04T08:58:35.121Z,70.24
2019-03-04T08:59:35.101Z,69.93
2019-03-04T09:00:35.085Z,70.10
2019-03-04T09:01:35.101Z,69.83
2019-03-04T09:02:35.058Z,69.59
2019-03-04T09:03:35.062Z,69.83
2019-03-04T09:04:35.050Z,69.93
2019-03-04T09:05:35.066Z,69.42
2019-03-04T09:06:35.038Z,69.53
2019-03-04T09:07:35.042Z,69.53
2019-03-04T09:08:35.012Z,69.63
2019-03-04T09:09:34.994Z,69.93
2019-03-04T09:10:34.980Z,70.04
2019-03-04T09:11:34.971Z,69.63
2019-03-04T09:12:35.982Z,69.53
2019-03-04T09:13:34.947Z,69.93
2019-03-04T09:14:34.933Z,69.42
2019-03-04T09:15:34.931Z,69.83
2019-03-04T09:16:34.913Z,69.12
2019-03-04T09:17:34.934Z,68.57
2019-03-04T09:18:34.891Z,68.68
2019-03-04T09:19:34.871Z,67.96
2019-03-04T09:20:34.859Z,67.86
2019-03-04T09:21:34.878Z,68.27
2019-03-04T09:22:34.852Z,66.74
2019-03-04T09:23:34.848Z,67.05
2019-03-04T09:24:34.816Z,66.94
2019-03-04T09:25:34.822Z,67.02
2019-03-04T09:26:34.800Z,67.43
2019-03-04T09:27:34.838Z,66.94
2019-03-04T09:28:34.781Z,66.61
2019-03-04T09:29:34.784Z,66.82
2019-03-04T09:30:34.763Z,66.20
2019-03-04T09:31:34.761Z,66.71
2019-03-04T09:32:34.723Z,66.20
2019-03-04T09:33:34.738Z,66.00
2019-03-04T09:34:34.739Z,65.46
2019-03-04T09:35:34.708Z,65.77
2019-03-04T09:36:34.697Z,65.66
2019-03-04T09:37:34.673Z,65.80
2019-03-04T09:38:34.661Z,65.89
2019-03-04T09:39:34.689Z,66.10
2019-03-04T09:40:34.657Z,65.89
2019-03-04T09:41:34.642Z,65.39
2019-03-04T09:42:34.638Z,65.89
2019-03-04T09:43:34.616Z,66.00
2019-03-04T09:44:34.638Z,65.89
2019-03-04T09:45:38.889Z,65.89
2019-03-04T09:46:34.595Z,65.59
2019-03-04T09:47:34.579Z,65.69
2019-03-04T09:48:34.572Z,66.10
2019-03-04T09:49:34.581Z,65.89
2019-03-04T09:50:34.559Z,65.89
2019-03-04T09:51:34.524Z,65.89
2019-03-04T09:52:34.503Z,65.89
2019-03-04T09:53:39.436Z,65.89
2019-03-04T09:54:35.513Z,66.00
2019-03-04T09:55:34.491Z,65.92
2019-03-04T09:56:34.462Z,65.69
2019-03-04T09:57:34.456Z,65.69
2019-03-04T09:58:34.434Z,65.49
2019-03-04T09:59:34.479Z,66.20
2019-03-04T10:00:34.427Z,65.89
2019-03-04T10:01:34.420Z,64.67
2019-03-04T10:02:34.402Z,65.59
2019-03-04T10:03:34.393Z,64.87
2019-03-04T10:04:34.384Z,64.75
2019-03-04T10:05:34.388Z,64.44
2019-03-04T10:06:34.354Z,64.34
2019-03-04T10:07:34.351Z,64.54
2019-03-04T10:08:34.347Z,64.20
2019-03-04T10:09:34.320Z,63.39
2019-03-04T10:10:34.339Z,63.39
2019-03-04T10:11:34.325Z,62.04
2019-03-04T10:12:34.299Z,62.55
2019-03-04T10:13:34.296Z,62.35
2019-03-04T10:14:34.297Z,62.55
2019-03-04T10:15:34.253Z,62.55
2019-03-04T10:16:34.278Z,63.26
2019-03-04T10:17:34.229Z,62.96
2019-03-04T10:18:34.225Z,62.85
2019-03-04T10:19:34.214Z,62.24
2019-03-04T10:20:34.205Z,62.65
2019-03-04T10:21:34.198Z,62.75
2019-03-04T10:22:34.211Z,62.45
2019-03-04T10:23:34.180Z,62.65
2019-03-04T10:24:34.155Z,62.45
2019-03-04T10:25:34.150Z,62.52
2019-03-04T10:26:34.143Z,61.60
2019-03-04T10:27:34.133Z,61.88
2019-03-04T10:28:34.140Z,61.17
2019-03-04T10:29:34.096Z,60.15
2019-03-04T10:30:34.090Z,59.01
2019-03-04T10:31:34.099Z,56.00
2019-03-04T10:32:34.075Z,49.35
2019-03-04T10:33:34.057Z,45.61
2019-03-04T10:34:34.093Z,42.82
2019-03-04T10:35:34.029Z,40.33
2019-03-04T10:36:34.020Z,39.67
2019-03-04T10:37:34.027Z,37.21
2019-03-04T10:38:34.002Z,36.47
2019-03-04T10:39:33.998Z,35.68
2019-03-04T10:40:34.010Z,35.21
2019-03-04T10:41:33.962Z,35.91
2019-03-04T10:42:33.953Z,36.13
2019-03-04T10:43:33.953Z,37.92
2019-03-04T10:44:37.999Z,40.11
2019-03-04T10:45:33.925Z,43.34
2019-03-04T10:46:33.950Z,44.92
2019-03-04T10:47:33.898Z,45.76
2019-03-04T10:48:33.884Z,47.52
2019-03-04T10:49:33.880Z,47.67
2019-03-04T10:50:33.863Z,49.71
2019-03-04T10:51:33.866Z,49.93
2019-03-04T10:52:33.877Z,49.25
2019-03-04T10:53:33.844Z,49.35
2019-03-04T10:54:33.831Z,50.41
2019-03-04T10:55:41.620Z,50.92
2019-03-04T10:56:34.807Z,50.63
2019-03-04T10:57:33.801Z,51.62
2019-03-04T10:58:33.813Z,51.45
2019-03-04T10:59:33.769Z,50.84
2019-03-04T11:00:33.759Z,51.45
2019-03-04T11:01:33.747Z,51.75
2019-03-04T11:02:33.739Z,50.84
2019-03-04T11:03:33.760Z,51.25
2019-03-04T11:04:33.721Z,51.45
2019-03-04T11:05:33.703Z,51.04
2019-03-04T11:06:33.703Z,50.23
2019-03-04T11:07:33.673Z,49.52
2019-03-04T11:08:33.670Z,48.31
2019-03-04T11:09:33.695Z,48.00
2019-03-04T11:10:33.639Z,47.72
2019-03-04T11:11:33.644Z,47.50
2019-03-04T11:12:33.634Z,48.03
2019-03-04T11:13:33.637Z,47.62
2019-03-04T11:14:33.599Z,46.61
2019-03-04T11:15:33.595Z,47.02
2019-03-04T11:16:33.585Z,46.38
2019-03-04T11:17:33.582Z,46.28
2019-03-04T11:18:33.564Z,46.48
2019-03-04T11:19:33.576Z,45.75
2019-03-04T11:20:33.531Z,46.56
2019-03-04T11:21:33.537Z,45.43
2019-03-04T11:22:33.514Z,45.23
2019-03-04T11:23:33.542Z,45.53
2019-03-04T11:24:33.499Z,48.08
2019-03-04T11:25:33.491Z,50.34
2019-03-04T11:26:33.475Z,53.50
2019-03-04T11:27:33.462Z,56.99
2019-03-04T11:28:33.447Z,59.69
2019-03-04T11:29:33.465Z,62.08
2019-03-04T11:30:33.434Z,65.80
2019-03-04T11:31:33.416Z,66.88
2019-03-04T11:32:33.404Z,69.59
2019-03-04T11:33:33.408Z,71.36
2019-03-04T11:34:33.414Z,72.72
2019-03-04T11:35:33.398Z,74.59
2019-03-04T11:36:33.369Z,76.46
2019-03-04T11:37:33.361Z,78.64
2019-03-04T11:38:33.342Z,78.27
2019-03-04T11:39:33.321Z,78.92
2019-03-04T11:40:33.333Z,81.82
2019-03-04T11:41:33.296Z,81.82
2019-03-04T11:42:33.293Z,82.17
2019-03-04T11:43:33.285Z,82.92
2019-03-04T11:44:33.300Z,84.15
2019-03-04T11:45:33.322Z,83.06
2019-03-04T11:46:33.246Z,82.96
2019-03-04T11:47:33.246Z,83.68
2019-03-04T11:48:33.236Z,82.69
2019-03-04T11:49:33.221Z,83.41
2019-03-04T11:50:33.252Z,83.82
2019-03-04T11:51:33.190Z,84.47
2019-03-04T11:52:33.183Z,85.71
2019-03-04T11:53:33.167Z,85.19
2019-03-04T11:54:33.173Z,86.22
2019-03-04T11:55:33.163Z,87.70
2019-03-04T11:56:33.185Z,88.82
2019-03-04T11:57:33.134Z,88.96
2019-03-04T11:58:33.130Z,87.32
2019-03-04T11:59:33.105Z,87.94
2019-03-04T12:00:33.103Z,89.31
2019-03-04T12:01:33.094Z,88.49
2019-03-04T12:02:39.010Z,89.31
2019-03-04T12:03:34.058Z,88.70
2019-03-04T12:04:33.041Z,88.59
2019-03-04T12:05:33.038Z,88.08
2019-03-04T12:06:33.040Z,87.32
2019-03-04T12:07:33.038Z,87.43
2019-03-04T12:08:33.033Z,86.91
2019-03-04T12:09:32.992Z,86.09
2019-03-04T12:10:32.989Z,86.60
2019-03-04T12:11:38.201Z,86.81
2019-03-04T12:12:33.983Z,86.71
2019-03-04T12:13:32.946Z,86.60
2019-03-04T12:14:32.947Z,87.22
2019-03-04T12:15:32.937Z,86.60
2019-03-04T12:16:32.931Z,86.46
2019-03-04T12:17:32.903Z,86.98
2019-03-04T12:18:32.915Z,86.57
2019-03-04T12:19:32.908Z,84.33
2019-03-04T12:20:32.880Z,83.51
2019-03-04T12:21:32.901Z,82.04
2019-03-04T12:22:32.859Z,80.88
2019-03-04T12:23:32.845Z,81.18
2019-03-04T12:24:32.818Z,78.79
2019-03-04T12:25:32.813Z,78.75
2019-03-04T12:26:32.811Z,76.91
2019-03-04T12:27:32.827Z,76.50
2019-03-04T12:28:32.818Z,76.67
2019-03-04T12:29:32.825Z,76.81
2019-03-04T12:30:32.776Z,76.67
2019-03-04T12:31:32.744Z,76.20
2019-03-04T12:32:32.780Z,77.83
2019-03-04T12:33:32.737Z,75.79
2019-03-04T12:34:32.731Z,75.59
2019-03-04T12:35:32.726Z,75.48
2019-03-04T12:36:32.698Z,76.20
2019-03-04T12:37:32.676Z,75.52
2019-03-04T12:38:32.736Z,76.20
2019-03-04T12:39:32.683Z,75.68
2019-03-04T12:40:32.656Z,74.84
2019-03-04T12:41:32.662Z,74.22
2019-03-04T12:42:32.631Z,73.81
2019-03-04T12:43:32.611Z,72.48
2019-03-04T12:44:32.635Z,72.75
2019-03-04T12:45:34.603Z,71.70
2019-03-04T12:46:32.594Z,71.39
2019-03-04T12:47:32.574Z,70.68
2019-03-04T12:48:32.571Z,70.06
2019-03-04T12:49:32.552Z,70.57
2019-03-04T12:50:32.564Z,70.54
2019-03-04T12:51:32.539Z,70.03
2019-03-04T12:52:32.520Z,69.42